Pagrindinis puslapis
METAR-TAF:

METAR-TAF

Oro uostai :

Tarptautinis Trabzono oro uostas

Trabzonas, Turkija

platuma: 41-00N, ilguma: 039-43E, Aukštis: 35 m

Dabartinis oras

Ataskaita buvo paskelbta 43 minutes, ne 13:50 UTC
Vėjas 9 kt iš Rytų
Temperatūra 15°C
Drėgmė 72%
Slėgis 1012 hPa
Matomumas 10 km arba daugiau
nėra debesų žemiau 1500 m ir nėra kamuolinių lietaus debesų

METAR: LTCG 121350Z 09009KT CAVOK 15/10 Q1012 NOSIG RMK RWY29 08009KT

Laikas: 17:33 (14:33 UTC)

Prognozė

Ataskaita buvo paskelbta 3 valandos ir 53 minutes, ne 10:40 UTC
Prognozė galioja nuo 12 metu 12 UTC su 13 metu 12 UTC
Vėjas 8 kt iš Rytų
Matomumas 10 km arba daugiau
nėra debesų žemiau 1500 m ir nėra kamuolinių lietaus debesų

TAF: LTCG 121040Z 1212/1312 10008KT CAVOK

Orai ataskaitas ir orų prognozės (METAR, TAF).

turimą stotys yra geltonos ir raudonos taškus žemėlapyje.

Perkelti pele per norėdami pamatyti stoties vardą.

Tada spustelėkite, norėdami matyti oro stebėjimo ir prognozės.

Norėdami pakeisti žemėlapį: spustelėkite ant žalios mygtukų su juodo kryžiaus žemyn,; žalią mygtuką su brūkšneliu, jei norite nutolinti; arba žalių rodyklių gretimoms žemėlapius.


METAR-TAF: